Main page
METAR-TAF:

METAR-TAF

Airports :

Mauritius, Plaisance, Mauritius

Sir Seewoosagur Ramgoolam International Airport

latitude: 20-26S, longitude: 057-40E, elevation: 55 m

Current weather observation

The report was made 1 hour and 9 minutes ago, at 03:00 UTC
Wind 11 kt from the East/Southeast
Temperature 24°C
Humidity 74%
Pressure 1021 hPa
Visibility 10 km or more
Scattered clouds at a height of 1800 ft

METAR: FIMP 230300Z 11011KT 9999 SCT018 24/19 Q1021

Time: 08:09 (04:09 UTC)

Forecast

The report was made 4 hours and 14 minutes ago, at 23:55 UTC
Forecast valid from 23 at 00 UTC to 24 at 06 UTC
Wind 10 kt from the East/Southeast
Visibility 10 km or more
Scattered clouds at a height of 1800 ft

TAF: FIMP 222355Z 2300/2406 11010KT 9999 SCT018

Weather observations and forecasts of more than 4000 airports (METAR and TAF reports).

The available stations are represented by yellow and red dots on the map.

Hover mouse over dot to see the name of the station.

Then click to see weather observations and forecasts.

To change the map : click on the green buttons with a black cross to zoom in, on the green button with a dash to zoom out, or on the green arrows for adjacent maps.


METAR-TAF: